Fedhaven, Florida
Current Conditions -  °F | °C
As of 12:47 PM on Monday 26 Jan 2015 (Local Time) from KBOW Reporting Station
Broken Clouds Broken Clouds  
Wind Chill: 18°   Ceiling: 4000
Heat Index: 18°   Visibility: 10mi
Dew Point:   Wind: 133mph
Humidity: 49%   Direction: 270°W
Pressure: 29.9"   Gusts: 31mph
Location:  27.86°N, 81.41°W
Report Text: KBOW 261747Z 270116G27KT 10SM BKN040 18/07 A2990
Loading
Personal Weather Stations






























Interactive Weather Map New forecast layout! Learn more

10-Day Weather Forecast

Advertisements
Track Severe Weather on mobile